Latest Weather Observations for Ngukurr AWS

IDD60801

Issued at 10:31 am CST Sunday 30 August 2015 (issued every 30 minutes, with the page automatically refreshed every 10 minutes)

About weather observations | Map of weather stations | Latest weather observations for NT | Other Formats
Station Details ID: 014299 Name: NGUKURR AIRPORT Lat: -14.72 Lon: 134.75 Height: 14.46 m
Data from the previous 72 hours. | See also: Recent months at Ngukurr AWS
Date/Time
CST
Temp
°C
App
Temp
°C
Dew
Point
Rel
Hum
%
Delta-T
°C
Wind Press
QNH
hPa
Press
MSL
hPa
Rain
since 9 am
mm
Dir
 
Spd
km/h
Gust
km/h
Spd
kts
Gust
kts
30/10:30am 31.5 27.8 7.9 23 13.0 ESE 17 28 9 15 1017.7 1017.7 0.0
30/10:00am 30.2 26.5 8.0 25 12.1 ESE 17 26 9 14 1017.8 1017.8 0.0
30/09:30am 29.7 26.3 9.3 28 11.4 ESE 17 26 9 14 1017.7 1017.7 0.0
30/09:00am 27.9 25.6 10.6 34 9.8 SE 13 19 7 10 1017.5 1017.5 0.0
30/08:30am 25.9 25.4 12.7 44 7.6 SE 7 11 4 6 1017.5 1017.5 0.0
30/08:00am 23.6 24.9 15.1 59 5.1 ENE 2 4 1 2 1017.4 1017.4 0.0
30/07:30am 20.6 22.4 15.4 72 3.1 CALM 0 0 0 0 1017.1 1017.1 0.0
30/07:00am 17.6 19.1 14.7 83 1.7 CALM 0 2 0 1 1016.8 1016.8 0.0
30/06:30am 17.5 18.7 14.8 84 1.6 NW 2 4 1 2 1016.4 1016.4 0.0
30/06:00am 17.4 18.8 14.3 82 1.8 CALM 0 0 0 0 1016.0 1016.0 0.0
30/05:30am 18.0 19.5 14.7 81 1.9 CALM 0 0 0 0 1015.7 1015.7 0.0
30/05:00am 18.4 19.6 14.9 80 2.0 S 2 4 1 2 1015.4 1015.4 0.0
30/04:30am 18.4 19.8 14.5 78 2.3 CALM 0 6 0 3 1015.3 1015.3 0.0
30/04:00am 18.7 20.1 14.4 76 2.5 CALM 0 0 0 0 1015.3 1015.3 0.0
30/03:30am 18.7 20.2 14.6 77 2.4 CALM 0 0 0 0 1015.4 1015.4 0.0
30/03:00am 19.3 21.1 15.6 79 2.2 CALM 0 0 0 0 1015.4 1015.4 0.0
30/02:30am 19.4 21.0 14.9 75 2.6 CALM 0 0 0 0 1015.5 1015.5 0.0
30/02:00am 19.7 21.1 14.3 71 3.1 CALM 0 0 0 0 1015.6 1015.6 0.0
30/01:30am 20.1 21.3 14.9 72 3.0 ESE 2 4 1 2 1015.8 1015.8 0.0
30/01:00am 20.3 21.9 14.9 71 3.2 CALM 0 0 0 0 1016.1 1016.1 0.0
30/12:30am 20.7 22.0 14.1 66 3.8 CALM 0 0 0 0 1016.3 1016.3 0.0
30/12:00am 21.1 21.2 14.0 64 4.1 S 6 6 3 3 1016.4 1016.4 0.0
 
Date/Time
CST
Temp
°C
App
Temp
°C
Dew
Point
Rel
Hum
%
Delta-T
°C
Wind Press
QNH
hPa
Press
MSL
hPa
Rain
since 9 am
mm
Dir
 
Spd
km/h
Gust
km/h
Spd
kts
Gust
kts
29/11:30pm 21.9 22.0 14.5 63 4.3 SSW 7 11 4 6 1016.3 1016.3 0.0
29/11:00pm 21.9 22.3 13.8 60 4.7 NNE 4 4 2 2 1015.9 1015.9 0.0
29/10:30pm 22.4 22.7 13.5 57 5.1 NE 4 4 2 2 1016.0 1016.0 0.0
29/10:00pm 23.2 23.7 13.9 56 5.4 E 4 6 2 3 1015.9 1015.9 0.0
29/09:30pm 23.8 24.0 13.1 51 6.2 E 4 4 2 2 1016.0 1016.0 0.0
29/09:00pm 24.8 25.1 13.4 49 6.6 ESE 4 6 2 3 1016.0 1016.0 0.0
29/08:30pm 25.9 25.5 13.1 45 7.5 E 7 11 4 6 1015.9 1015.9 0.0
29/08:00pm 26.3 26.2 13.4 45 7.6 ENE 6 7 3 4 1015.5 1015.5 0.0
29/07:30pm 27.2 26.1 13.2 42 8.2 ENE 11 15 6 8 1015.4 1015.4 0.0
29/07:00pm 27.8 26.1 12.6 39 8.9 ENE 13 20 7 11 1014.9 1014.9 0.0
29/06:30pm 28.6 26.0 10.8 33 10.1 ENE 15 20 8 11 1014.7 1014.7 0.0
29/06:00pm 30.0 27.6 11.5 32 10.7 E 15 22 8 12 1014.4 1014.4 0.0
29/05:30pm 30.9 27.7 11.3 30 11.4 E 19 26 10 14 1014.1 1014.1 0.0
29/05:00pm 31.5 28.7 11.3 29 11.7 ESE 17 24 9 13 1013.9 1013.9 0.0
29/04:30pm 32.2 29.0 11.4 28 12.1 ESE 19 26 10 14 1013.8 1013.8 0.0
29/04:00pm 32.6 29.7 12.3 29 12.0 ESE 19 33 10 18 1013.9 1013.9 0.0
29/03:30pm 32.4 30.0 12.6 30 11.8 ESE 17 24 9 13 1013.9 1013.9 0.0
29/03:00pm 32.9 30.8 13.5 30 11.7 E 17 26 9 14 1014.1 1014.1 0.0
29/02:30pm 33.0 30.4 13.1 30 12.0 E 19 35 10 19 1014.3 1014.3 0.0
29/02:00pm 33.0 30.4 13.1 30 12.0 ESE 19 32 10 17 1014.8 1014.8 0.0
29/01:30pm 33.0 30.0 13.6 31 11.7 E 22 37 12 20 1015.4 1015.4 0.0
29/01:00pm 32.7 29.1 12.9 30 11.9 E 24 37 13 20 1015.8 1015.8 0.0
29/12:30pm 32.3 28.3 13.0 31 11.5 E 26 39 14 21 1016.4 1016.4 0.0
29/12:00pm 32.4 29.7 14.5 33 11.0 ESE 22 39 12 21 1017.1 1017.1 0.0
29/11:30am 31.2 29.7 15.2 38 9.8 ESE 17 24 9 13 1017.6 1017.6 0.0
29/11:00am 30.8 28.7 14.8 37 9.8 E 19 33 10 18 1018.0 1018.0 0.0
29/10:30am 30.2 28.9 15.9 42 8.9 ESE 17 26 9 14 1018.3 1018.3 0.0
29/10:00am 29.6 29.7 17.4 47 7.7 ESE 13 24 7 13 1018.4 1018.4 0.0
29/09:30am 27.7 28.6 18.4 57 5.9 ESE 11 17 6 9 1018.3 1018.3 0.0
29/09:00am 26.5 28.3 19.6 66 4.5 SE 9 15 5 8 1018.2 1018.2 0.0
29/08:30am 25.1 27.3 20.4 75 3.1 SE 9 13 5 7 1017.8 1017.8 0.0
29/08:00am 23.9 26.1 20.4 81 2.3 ESE 9 13 5 7 1017.4 1017.4 0.0
29/07:30am 22.5 26.6 20.8 90 1.1 CALM 0 4 0 2 1017.2 1017.2 0.0
29/07:00am 20.5 23.9 20.2 98 0.2 SSE 2 4 1 2 1016.7 1016.7 0.0
29/06:30am 20.2 23.0 19.7 97 0.3 S 4 6 2 3 1016.2 1016.2 0.0
29/06:00am 20.9 24.0 20.2 96 0.4 SSW 4 6 2 3 1016.0 1016.0 0.0
29/05:30am 21.2 24.3 20.2 94 0.6 SSW 4 6 2 3 1015.7 1015.7 0.0
29/05:00am 21.8 24.9 20.3 91 1.0 NE 4 6 2 3 1015.5 1015.5 0.0
29/04:30am 22.0 25.3 19.9 88 1.3 E 2 4 1 2 1015.7 1015.7 0.0
29/04:00am 22.6 26.1 20.3 87 1.5 NNE 2 4 1 2 1015.9 1015.9 0.0
29/03:30am 23.0 26.3 20.7 87 1.5 ESE 4 7 2 4 1016.1 1016.1 0.0
29/03:00am 22.7 25.5 20.4 87 1.5 SE 6 7 3 4 1016.1 1016.1 0.0
29/02:30am 23.1 25.8 20.6 86 1.6 SE 7 13 4 7 1016.3 1016.3 0.0
29/02:00am 23.5 26.3 20.8 85 1.8 ESE 7 9 4 5 1016.6 1016.6 0.0
29/01:30am 23.4 26.5 21.1 87 1.5 SE 6 11 3 6 1016.7 1016.7 0.0
29/01:00am 23.0 26.0 20.9 88 1.4 SE 6 9 3 5 1016.8 1016.8 0.0
29/12:30am 22.3 24.8 20.2 88 1.4 SSE 7 11 4 6 1016.9 1016.9 0.0
29/12:00am 22.8 25.4 20.1 85 1.7 ESE 6 9 3 5 1016.8 1016.8 0.0
 
Date/Time
CST
Temp
°C
App
Temp
°C
Dew
Point
Rel
Hum
%
Delta-T
°C
Wind Press
QNH
hPa
Press
MSL
hPa
Rain
since 9 am
mm
Dir
 
Spd
km/h
Gust
km/h
Spd
kts
Gust
kts
28/11:30pm 23.1 25.6 19.9 82 2.1 ENE 6 7 3 4 1016.6 1016.6 0.0
28/11:00pm 23.6 25.9 19.9 80 2.4 E 7 9 4 5 1016.6 1016.6 0.0
28/10:30pm 24.0 26.3 19.9 78 2.6 ENE 7 11 4 6 1016.5 1016.5 0.0
28/10:00pm 24.4 26.7 19.9 76 2.9 ENE 7 9 4 5 1016.5 1016.5 0.0
28/09:30pm 24.7 27.0 19.5 73 3.3 E 6 9 3 5 1016.3 1016.3 0.0
28/09:00pm 25.2 27.6 19.6 71 3.6 E 6 7 3 4 1016.0 1016.0 0.0
28/08:30pm 25.9 27.6 19.3 67 4.2 E 9 13 5 7 1015.7 1015.7 0.0
28/08:00pm 26.6 28.1 19.0 63 4.9 ENE 9 13 5 7 1015.3 1015.3 0.0
28/07:30pm 27.3 28.7 17.8 56 6.0 E 7 11 4 6 1014.8 1014.8 0.0
28/07:00pm 28.3 28.6 15.9 47 7.6 E 9 11 5 6 1014.3 1014.3 0.0
28/06:30pm 29.2 28.1 14.2 40 9.0 ENE 13 22 7 12 1013.9 1013.9 0.0
28/06:00pm 30.3 28.7 14.0 37 9.8 E 15 22 8 12 1013.6 1013.6 0.0
28/05:30pm 31.1 28.7 13.8 34 10.4 E 19 30 10 16 1013.2 1013.2 0.0
28/05:00pm 32.1 29.9 14.3 34 10.9 E 19 28 10 15 1012.9 1012.9 0.0
28/04:30pm 32.3 30.0 14.0 33 11.1 E 19 24 10 13 1012.8 1012.8 0.0
28/04:00pm 32.1 29.7 14.3 34 10.9 ESE 20 30 11 16 1012.9 1012.9 0.0
28/03:30pm 32.9 30.9 14.0 32 11.5 E 17 30 9 16 1012.9 1012.9 0.0
28/03:00pm 33.0 30.5 14.1 32 11.5 E 20 30 11 16 1013.3 1013.3 0.0
28/02:30pm 32.6 30.3 14.2 32 11.2 E 19 33 10 18 1013.5 1013.5 0.0
28/02:00pm 33.0 30.7 14.1 32 11.5 E 19 30 10 16 1014.0 1014.0 0.0
28/01:30pm 32.9 30.4 14.0 32 11.5 ENE 20 32 11 17 1014.5 1014.5 0.0
28/01:00pm 33.2 31.5 14.8 33 11.4 ENE 17 35 9 19 1015.0 1015.0 0.0
28/12:30pm 32.4 30.0 14.5 33 11.0 E 20 32 11 17 1015.6 1015.6 0.0
28/12:00pm 32.4 30.9 16.3 38 10.1 ENE 19 33 10 18 1016.2 1016.2 0.0
28/11:30am 30.6 30.3 17.3 45 8.4 ESE 15 28 8 15 1016.9 1016.9 0.0
28/11:00am 30.2 30.0 17.6 46 8.0 ESE 15 26 8 14 1017.3 1017.3 0.0
28/10:30am 27.7 30.7 20.0 63 5.0 ENE 4 7 2 4 1017.9 1017.9 0.0
28/10:00am 25.6 28.8 20.4 73 3.4 NE 4 7 2 4 1018.0 1018.0 0.0
28/09:30am 23.5 26.9 21.6 89 1.3 SE 6 7 3 4 1018.0 1018.0 0.0
28/09:00am 22.3 25.9 22.0 98 0.2 SSE 6 9 3 5 1017.9 1017.9 0.0
28/08:30am 21.6 24.9 21.4 99 0.1 S 6 7 3 4 1017.6 1017.6 0.0
28/08:00am 21.1 24.5 20.9 99 0.1 S 4 6 2 3 1017.2 1017.2 0.0
28/07:30am 21.2 24.3 21.0 99 0.1 S 6 9 3 5 1016.9 1016.9 0.0
28/07:00am 20.7 23.9 20.5 99 0.1 SSE 4 4 2 2 1016.5 1016.5 0.0
28/06:30am 20.3 23.3 20.1 99 0.1 S 4 6 2 3 1016.2 1016.2 0.0
28/06:00am 20.0 23.2 19.7 98 0.2 SSW 2 2 1 1 1015.7 1015.7 0.0
28/05:30am 20.0 22.8 19.7 98 0.2 SSW 4 6 2 3 1015.5 1015.5 0.0
28/05:00am 20.6 24.5 20.4 99 0.1 CALM 0 0 0 0 1015.4 1015.4 0.0
28/04:30am 19.8 23.3 19.5 98 0.2 CALM 0 0 0 0 1015.3 1015.3 0.0
28/04:00am 20.1 23.0 19.8 98 0.2 SSE 4 4 2 2 1015.2 1015.2 0.0
28/03:30am 20.4 23.8 20.1 98 0.2 ESE 2 4 1 2 1015.0 1015.0 0.0
28/03:00am 20.1 23.0 19.8 98 0.2 S 4 6 2 3 1015.1 1015.1 0.0
28/02:30am 21.8 25.5 21.5 98 0.2 NE 4 6 2 3 1015.2 1015.2 0.0
28/02:00am 21.4 24.9 21.1 98 0.2 NE 4 6 2 3 1015.3 1015.3 0.0
28/01:30am 20.8 23.9 20.3 97 0.3 E 4 6 2 3 1015.7 1015.7 0.0
28/01:00am 21.7 25.5 20.9 95 0.5 ENE 2 6 1 3 1015.8 1015.8 0.0
28/12:30am 21.6 25.1 20.4 93 0.8 ESE 2 4 1 2 1016.1 1016.1 0.0
28/12:00am 22.1 25.6 20.4 90 1.1 ESE 2 4 1 2 1016.2 1016.2 0.0
 
Date/Time
CST
Temp
°C
App
Temp
°C
Dew
Point
Rel
Hum
%
Delta-T
°C
Wind Press
QNH
hPa
Press
MSL
hPa
Rain
since 9 am
mm
Dir
 
Spd
km/h
Gust
km/h
Spd
kts
Gust
kts
27/11:30pm 22.5 25.3 20.4 88 1.4 ENE 6 6 3 3 1016.4 1016.4 0.0
27/11:00pm 22.8 25.5 20.3 86 1.6 ESE 6 7 3 4 1016.4 1016.4 0.0
27/10:30pm 23.2 25.9 20.2 83 1.9 ENE 6 7 3 4 1016.5 1016.5 0.0
27/10:00pm 23.7 26.3 20.0 80 2.4 E 6 9 3 5 1016.6 1016.6 0.0
27/09:30pm 24.1 26.7 20.0 78 2.6 E 6 7 3 4 1016.4 1016.4 0.0
27/09:00pm 24.5 26.9 20.0 76 2.9 E 7 9 4 5 1016.2 1016.2 0.0
27/08:30pm 24.9 27.2 19.9 74 3.2 E 7 11 4 6 1016.1 1016.1 0.0
27/08:00pm 25.5 26.9 19.6 70 3.8 E 11 17 6 9 1015.7 1015.7 0.0
27/07:30pm 26.1 27.1 19.5 67 4.3 E 13 19 7 10 1015.4 1015.4 0.0
27/07:00pm 27.2 27.4 18.5 59 5.6 E 15 20 8 11 1014.9 1014.9 0.0
27/06:30pm 28.4 27.6 17.0 50 7.1 E 17 22 9 12 1014.4 1014.4 0.0
27/06:00pm 29.8 28.8 15.5 42 8.8 E 15 22 8 12 1014.0 1014.0 0.0
27/05:30pm 30.9 28.9 14.9 37 9.8 E 19 24 10 13 1013.4 1013.4 0.0
27/05:00pm 31.9 30.1 14.5 34 10.6 E 17 24 9 13 1013.1 1013.1 0.0
27/04:30pm 32.5 30.6 14.1 32 11.2 E 17 30 9 16 1013.0 1013.0 0.0
27/04:00pm 32.8 31.4 13.4 30 11.7 ESE 13 22 7 12 1012.9 1012.9 0.0
27/03:30pm 32.9 30.5 12.5 29 12.2 E 17 26 9 14 1013.0 1013.0 0.0
27/03:00pm 33.0 30.5 14.1 32 11.5 E 20 28 11 15 1013.3 1013.3 0.0
27/02:30pm 33.3 30.4 13.9 31 11.8 E 22 32 12 17 1013.5 1013.5 0.0
27/02:00pm 33.9 31.5 14.4 31 12.0 E 20 33 11 18 1013.8 1013.8 0.0
27/01:30pm 34.7 33.7 15.6 32 12.0 ESE 15 24 8 13 1014.0 1014.0 0.0
27/01:00pm 32.2 31.6 15.7 37 10.3 ESE 13 20 7 11 1014.5 1014.5 0.0
27/12:30pm 33.0 31.9 16.4 37 10.5 ENE 17 24 9 13 1015.1 1015.1 0.0
27/12:00pm 31.7 31.5 16.8 40 9.4 E 13 24 7 13 1015.7 1015.7 0.0
27/11:30am 31.9 31.8 17.8 43 9.0 ENE 15 22 8 12 1016.3 1016.3 0.0
27/11:00am 30.7 32.9 19.1 50 7.6 ESE 6 13 3 7 1016.9 1016.9 0.0

Other Formats:

Comma delimited format used in spreadsheet applications
http://www.bom.gov.au/fwo/IDD60801/IDD60801.94106.axf

JavaScript Object Notation format (JSON) in row-major order
http://www.bom.gov.au/fwo/IDD60801/IDD60801.94106.json